Time;durP1;ratioP1;P1;durP2;ratioP2;P2;SDS_P1;SDS_P2;PMS_P1;PMS_P2;Temp;Humidity;BMP_temperature;BMP_pressure;BME280_temperature;BME280_humidity;BME280_pressure;Samples;Min_cycle;Max_cycle;Signal;HPM_P1;HPM_P2
2021/07/18 00:02:55;;;;;;;22.10;19.30;;;18.40;99.90;;;;;;6149847;28;20098;-86
2021/07/18 00:05:56;;;;;;;21.38;18.92;;;18.40;99.90;;;;;;6133250;28;20060;-85
2021/07/18 00:08:56;;;;;;;21.02;18.55;;;18.40;99.90;;;;;;6149752;28;20031;-87
2021/07/18 00:11:57;;;;;;;22.70;19.30;;;18.40;99.90;;;;;;6132948;28;20027;-86
2021/07/18 00:14:58;;;;;;;20.17;18.08;;;18.30;99.90;;;;;;6134198;28;20050;-85
2021/07/18 00:17:58;;;;;;;24.83;19.52;;;18.20;99.90;;;;;;6153813;28;20057;-85
2021/07/18 00:20:59;;;;;;;23.67;18.10;;;18.20;99.90;;;;;;6137589;28;20038;-85
2021/07/18 00:23:59;;;;;;;22.63;18.60;;;18.10;99.90;;;;;;6137427;28;20046;-85
2021/07/18 00:27:00;;;;;;;21.65;19.10;;;18.00;99.90;;;;;;6153945;28;20035;-86
2021/07/18 00:30:01;;;;;;;26.33;19.02;;;18.00;99.90;;;;;;6153474;28;20035;-85
2021/07/18 00:33:04;;;;;;;24.40;21.07;;;18.00;99.90;;;;;;6136888;28;20035;-84
2021/07/18 00:36:04;;;;;;;21.48;19.30;;;17.90;99.90;;;;;;6138298;28;20030;-85
2021/07/18 00:39:05;;;;;;;22.90;19.77;;;17.90;99.90;;;;;;6153058;28;20035;-85
2021/07/18 00:42:05;;;;;;;25.50;19.45;;;17.90;99.90;;;;;;6137565;28;20019;-85
2021/07/18 00:45:07;;;;;;;22.48;20.05;;;18.00;99.90;;;;;;6137155;28;20452;-86
2021/07/18 00:48:08;;;;;;;22.52;19.02;;;18.00;99.90;;;;;;6137538;28;20452;-85
2021/07/18 00:51:08;;;;;;;24.35;20.65;;;17.90;99.90;;;;;;6152953;28;20038;-86
2021/07/18 00:54:09;;;;;;;21.20;18.92;;;17.90;99.90;;;;;;6152603;28;20073;-84
2021/07/18 00:57:10;;;;;;;21.90;19.38;;;17.80;99.90;;;;;;6136640;28;20023;-85
2021/07/18 01:00:11;;;;;;;20.63;18.42;;;17.80;99.90;;;;;;6136451;28;20038;-84
2021/07/18 01:03:12;;;;;;;25.17;18.67;;;17.70;99.90;;;;;;6152778;28;20056;-84
2021/07/18 01:06:13;;;;;;;23.65;18.33;;;17.60;99.90;;;;;;6152646;28;20027;-84
2021/07/18 01:09:14;;;;;;;23.33;19.38;;;17.50;99.90;;;;;;6136874;28;20508;-84
2021/07/18 01:12:16;;;;;;;22.08;19.35;;;17.40;99.90;;;;;;6136747;28;20027;-85
2021/07/18 01:15:17;;;;;;;21.73;18.42;;;17.40;99.90;;;;;;6152583;28;20062;-84
2021/07/18 01:18:17;;;;;;;23.75;19.23;;;17.30;99.90;;;;;;6152763;28;20502;-85
2021/07/18 01:21:22;;;;;;;21.63;19.33;;;17.20;99.90;;;;;;6152502;28;20030;-84
2021/07/18 01:24:22;;;;;;;20.85;18.65;;;17.20;99.90;;;;;;6136465;28;20059;-85
2021/07/18 01:27:23;;;;;;;26.75;18.48;;;17.20;99.90;;;;;;6136035;28;20113;-84
2021/07/18 01:30:24;;;;;;;20.02;17.92;;;17.10;99.90;;;;;;6136293;28;20085;-84
2021/07/18 01:33:24;;;;;;;21.42;18.02;;;17.10;99.90;;;;;;6136123;28;20483;-85
2021/07/18 01:36:25;;;;;;;22.45;18.85;;;17.00;99.90;;;;;;6136404;28;20031;-84
2021/07/18 01:39:25;;;;;;;21.35;18.13;;;17.00;99.90;;;;;;6136345;28;20026;-85
2021/07/18 01:42:26;;;;;;;22.35;18.88;;;17.00;99.90;;;;;;6136142;28;20038;-84
2021/07/18 01:45:26;;;;;;;26.30;19.15;;;16.90;99.90;;;;;;6136228;28;20019;-83
2021/07/18 01:48:27;;;;;;;23.45;19.17;;;16.80;99.90;;;;;;6136085;28;20069;-84
2021/07/18 01:51:28;;;;;;;21.80;18.08;;;16.80;99.90;;;;;;6152409;28;20102;-84
2021/07/18 01:54:28;;;;;;;25.77;19.10;;;16.80;99.90;;;;;;6151416;28;20055;-84
2021/07/18 01:57:29;;;;;;;22.63;18.38;;;16.70;99.90;;;;;;6135983;28;20042;-83
2021/07/18 02:00:30;;;;;;;20.38;17.65;;;16.70;99.90;;;;;;6135904;28;20105;-83
2021/07/18 02:03:30;;;;;;;23.88;18.80;;;16.70;99.90;;;;;;6151868;28;20088;-84
2021/07/18 02:06:31;;;;;;;22.17;17.85;;;16.70;99.90;;;;;;6135711;28;20022;-83
2021/07/18 02:09:35;;;;;;;19.30;16.60;;;16.60;99.90;;;;;;6135569;28;20033;-84
2021/07/18 02:12:36;;;;;;;18.25;16.08;;;16.60;99.90;;;;;;6151036;28;20033;-83
2021/07/18 02:15:36;;;;;;;21.45;18.08;;;16.60;99.90;;;;;;6135367;28;20741;-84
2021/07/18 02:18:37;;;;;;;22.38;17.65;;;16.60;99.90;;;;;;6151280;28;20026;-84
2021/07/18 02:21:39;;;;;;;24.50;16.80;;;16.50;99.90;;;;;;6135053;28;20471;-84
2021/07/18 02:24:39;;;;;;;21.15;17.30;;;16.50;99.90;;;;;;6135245;28;20039;-83
2021/07/18 02:27:40;;;;;;;25.00;18.90;;;16.40;99.90;;;;;;6135329;28;20027;-84
2021/07/18 02:30:41;;;;;;;21.83;17.75;;;16.30;99.90;;;;;;6167383;28;20038;-84
2021/07/18 02:33:41;;;;;;;20.30;16.55;;;16.30;99.90;;;;;;6151222;28;20035;-84
2021/07/18 02:36:42;;;;;;;18.55;15.00;;;16.30;99.90;;;;;;6135389;28;20475;-85
2021/07/18 02:39:42;;;;;;;17.55;14.07;;;16.30;99.90;;;;;;6134329;28;20128;-85
2021/07/18 02:42:43;;;;;;;17.50;15.73;;;16.20;99.90;;;;;;6151226;28;20027;-85
2021/07/18 02:45:43;;;;;;;18.73;15.40;;;16.20;99.90;;;;;;6135315;28;20022;-87
2021/07/18 02:48:44;;;;;;;18.75;15.27;;;16.20;99.90;;;;;;6134652;28;20116;-83
2021/07/18 02:51:45;;;;;;;21.30;16.52;;;16.10;99.90;;;;;;6134983;28;20031;-85
2021/07/18 02:54:45;;;;;;;22.33;15.75;;;16.00;99.90;;;;;;6150401;28;20081;-85
2021/07/18 02:57:46;;;;;;;19.50;15.15;;;16.00;99.90;;;;;;6134781;28;20038;-84
2021/07/18 03:00:47;;;;;;;21.38;15.05;;;16.00;99.90;;;;;;6134575;28;20430;-83
2021/07/18 03:03:48;;;;;;;18.92;15.13;;;16.00;99.90;;;;;;6150603;28;20455;-84
2021/07/18 03:06:48;;;;;;;16.58;12.98;;;15.90;99.90;;;;;;6150367;28;20452;-84
2021/07/18 03:09:49;;;;;;;15.25;12.10;;;15.90;99.90;;;;;;6134629;28;20070;-85
2021/07/18 03:12:49;;;;;;;15.75;11.35;;;15.70;99.90;;;;;;6134569;28;20575;-84
2021/07/18 03:15:50;;;;;;;15.80;10.88;;;15.80;99.90;;;;;;6134210;28;20443;-83
2021/07/18 03:18:50;;;;;;;16.42;12.27;;;15.60;99.90;;;;;;6134461;28;20042;-83
2021/07/18 03:21:51;;;;;;;15.65;11.68;;;15.50;99.90;;;;;;6134034;28;20023;-84
2021/07/18 03:24:52;;;;;;;15.52;10.60;;;15.50;99.90;;;;;;6150312;28;20035;-85
2021/07/18 03:27:52;;;;;;;14.88;10.52;;;15.50;99.90;;;;;;6149815;28;20027;-83
2021/07/18 03:30:53;;;;;;;14.00;11.38;;;15.40;99.90;;;;;;6134335;28;20072;-84
2021/07/18 03:33:53;;;;;;;15.43;11.60;;;15.40;99.90;;;;;;6149731;28;20034;-84
2021/07/18 03:36:54;;;;;;;17.60;12.43;;;15.40;99.90;;;;;;6166425;28;20035;-84
2021/07/18 03:39:55;;;;;;;16.10;11.77;;;15.40;99.90;;;;;;6134030;28;20038;-84
2021/07/18 03:42:56;;;;;;;17.35;13.13;;;15.40;99.90;;;;;;6133818;28;20431;-83
2021/07/18 03:45:56;;;;;;;13.60;11.38;;;15.30;99.90;;;;;;6134012;28;20072;-85
2021/07/18 03:48:57;;;;;;;14.48;11.15;;;15.30;99.90;;;;;;6149866;28;20023;-84
2021/07/18 03:51:57;;;;;;;15.95;11.10;;;15.20;99.90;;;;;;6133793;28;20057;-84
2021/07/18 03:54:58;;;;;;;15.98;11.52;;;15.20;99.90;;;;;;6133462;28;20078;-85
2021/07/18 03:57:59;;;;;;;19.20;12.45;;;15.30;99.90;;;;;;6133990;28;20038;-85
2021/07/18 04:01:00;;;;;;;17.02;10.55;;;15.20;99.90;;;;;;6149442;28;20368;-85
2021/07/18 04:04:01;;;;;;;20.33;12.52;;;15.20;99.90;;;;;;6134020;28;20388;-85
2021/07/18 04:07:02;;;;;;;18.23;11.68;;;15.50;99.90;;;;;;6133610;28;20070;-85
2021/07/18 04:10:03;;;;;;;14.85;9.52;;;15.20;99.90;;;;;;6133396;28;20027;-85
2021/07/18 04:13:04;;;;;;;14.90;9.73;;;15.60;99.90;;;;;;6133776;28;20042;-84
2021/07/18 04:16:05;;;;;;;13.68;10.05;;;15.30;99.90;;;;;;6133458;28;20133;-84
2021/07/18 04:19:05;;;;;;;14.32;9.43;;;15.60;99.90;;;;;;6133594;28;20031;-85
2021/07/18 04:22:06;;;;;;;11.18;8.02;;;15.50;99.90;;;;;;6133574;28;20035;-85
2021/07/18 04:25:07;;;;;;;14.52;8.65;;;15.70;99.90;;;;;;6149646;28;20049;-84
2021/07/18 04:28:08;;;;;;;12.70;8.13;;;15.90;99.90;;;;;;6133566;28;20027;-86
2021/07/18 04:31:08;;;;;;;12.50;7.68;;;16.10;99.90;;;;;;6133922;28;20027;-86
2021/07/18 04:34:09;;;;;;;10.32;7.97;;;16.30;99.90;;;;;;6133342;28;20479;-84
2021/07/18 04:37:10;;;;;;;13.80;8.30;;;16.50;99.90;;;;;;6133190;28;20034;-85
2021/07/18 04:40:11;;;;;;;12.93;8.70;;;16.90;99.90;;;;;;6149323;28;20034;-86
2021/07/18 04:43:11;;;;;;;12.07;8.35;;;17.00;99.90;;;;;;6132943;28;20031;-85
2021/07/18 04:46:12;;;;;;;8.43;7.57;;;17.30;99.90;;;;;;6133672;28;20023;-85
2021/07/18 04:49:13;;;;;;;10.82;7.78;;;17.60;99.90;;;;;;6132759;28;20031;-85
2021/07/18 04:52:13;;;;;;;12.57;7.68;;;17.90;99.90;;;;;;6133227;28;20406;-86
2021/07/18 04:55:14;;;;;;;8.27;7.00;;;18.30;99.90;;;;;;6148159;28;20066;-85
2021/07/18 04:58:15;;;;;;;7.50;6.63;;;18.40;99.90;;;;;;6132991;28;20062;-85
2021/07/18 05:01:15;;;;;;;11.65;6.93;;;18.60;99.90;;;;;;6134335;28;20545;-85
2021/07/18 05:04:16;;;;;;;7.40;6.38;;;18.90;99.90;;;;;;6136878;28;20054;-85
2021/07/18 05:07:16;;;;;;;7.03;6.22;;;19.00;99.90;;;;;;6153389;28;20033;-86
2021/07/18 05:10:18;;;;;;;10.10;7.05;;;19.30;99.90;;;;;;6136644;28;20034;-85
2021/07/18 05:13:18;;;;;;;12.18;6.85;;;19.60;99.90;;;;;;6136326;28;20034;-85
2021/07/18 05:16:19;;;;;;;8.70;6.60;;;19.50;99.90;;;;;;6136458;28;20074;-83
2021/07/18 05:19:20;;;;;;;9.45;7.05;;;19.90;99.90;;;;;;6152922;28;20030;-84
2021/07/18 05:22:21;;;;;;;9.65;5.72;;;20.20;99.90;;;;;;6153044;28;20031;-85
2021/07/18 05:25:21;;;;;;;8.20;5.78;;;20.40;99.90;;;;;;6136580;28;20027;-87
2021/07/18 05:28:22;;;;;;;9.95;6.20;;;20.70;99.90;;;;;;6136193;28;20027;-82
2021/07/18 05:31:22;;;;;;;8.60;5.75;;;20.80;99.90;;;;;;6136445;28;20081;-81
2021/07/18 05:34:23;;;;;;;11.10;6.68;;;21.00;99.90;;;;;;6152264;28;20054;-82
2021/07/18 05:37:24;;;;;;;9.57;6.47;;;21.00;99.90;;;;;;6168454;28;20074;-83
2021/07/18 05:40:24;;;;;;;9.38;5.82;;;21.30;99.90;;;;;;6151127;28;20027;-78
2021/07/18 05:43:25;;;;;;;9.32;5.95;;;21.70;99.90;;;;;;6169318;28;20027;-80
2021/07/18 05:46:25;;;;;;;10.52;5.85;;;21.90;99.90;;;;;;6152162;28;20049;-80
2021/07/18 05:49:27;;;;;;;7.30;5.93;;;21.90;99.90;;;;;;6169239;28;20035;-80
2021/07/18 05:52:27;;;;;;;8.20;5.82;;;21.90;99.90;;;;;;6169307;28;20057;-81
2021/07/18 05:55:28;;;;;;;7.95;5.75;;;22.30;99.90;;;;;;6167712;28;20099;-80
2021/07/18 05:58:28;;;;;;;7.82;6.15;;;22.40;99.90;;;;;;6167316;28;20069;-84
2021/07/18 06:01:29;;;;;;;8.85;6.55;;;23.00;99.90;;;;;;6167727;28;20057;-83
2021/07/18 06:04:30;;;;;;;12.30;7.85;;;23.10;99.90;;;;;;6151414;28;20039;-87
2021/07/18 06:07:30;;;;;;;16.25;8.38;;;23.30;99.90;;;;;;6135960;28;20026;-88
2021/07/18 06:10:31;;;;;;;10.50;4.70;;;23.80;99.90;;;;;;6151925;28;20027;-86
2021/07/18 06:13:32;;;;;;;9.60;5.40;;;23.60;99.20;;;;;;6134590;28;20112;-86
2021/07/18 06:16:32;;;;;;;7.68;5.72;;;23.90;98.50;;;;;;6149228;28;20031;-85
2021/07/18 06:19:33;;;;;;;6.68;5.78;;;24.30;97.80;;;;;;6135020;28;20074;-85
2021/07/18 06:22:34;;;;;;;7.70;5.43;;;24.70;97.70;;;;;;6151044;28;20026;-84
2021/07/18 06:25:34;;;;;;;7.60;5.07;;;25.00;96.80;;;;;;6134540;28;20609;-83
2021/07/18 06:28:35;;;;;;;6.00;5.07;;;25.10;96.50;;;;;;6150202;28;20377;-83
2021/07/18 06:31:35;;;;;;;8.47;5.43;;;25.30;96.10;;;;;;6167020;28;20033;-83
2021/07/18 06:34:36;;;;;;;5.43;4.50;;;25.60;95.10;;;;;;6135076;28;20453;-84
2021/07/18 06:37:37;;;;;;;6.67;4.47;;;26.00;94.80;;;;;;6150299;28;20082;-83
2021/07/18 06:40:37;;;;;;;7.37;5.33;;;26.60;93.20;;;;;;6134341;28;20556;-84
2021/07/18 06:43:38;;;;;;;7.00;4.90;;;27.00;92.30;;;;;;6150699;28;20027;-83
2021/07/18 06:46:40;;;;;;;9.90;4.70;;;27.40;90.00;;;;;;6150729;28;20113;-82
2021/07/18 06:49:40;;;;;;;;;;;27.70;88.60;;;;;;6150125;28;20023;-82
2021/07/18 06:52:41;;;;;;;8.75;4.82;;;28.00;90.10;;;;;;6166288;28;19910;-82
2021/07/18 06:55:42;;;;;;;11.47;5.23;;;28.50;87.60;;;;;;6151016;28;20456;-84
2021/07/18 06:58:42;;;;;;;7.77;5.23;;;28.80;85.00;;;;;;6150064;28;20031;-85
2021/07/18 07:01:43;;;;;;;9.97;5.17;;;29.20;82.50;;;;;;6134057;28;20465;-82
2021/07/18 07:04:43;;;;;;;10.00;4.83;;;29.40;85.50;;;;;;6150357;28;20452;-83
2021/07/18 07:07:47;;;;;;;7.83;6.57;;;29.50;86.30;;;;;;6150468;28;20031;-82
2021/07/18 07:10:48;;;;;;;10.45;7.32;;;29.30;85.50;;;;;;6134560;28;20062;-82
2021/07/18 07:13:50;;;;;;;8.07;7.28;;;29.30;84.80;;;;;;6149690;28;20034;-82
2021/07/18 07:16:51;;;;;;;9.70;8.32;;;29.40;85.50;;;;;;6149964;28;20039;-82
2021/07/18 07:19:52;;;;;;;11.32;9.50;;;29.20;85.40;;;;;;6150008;28;20031;-82
2021/07/18 07:22:52;;;;;;;10.97;9.37;;;29.40;86.20;;;;;;6165760;28;20117;-81
2021/07/18 07:25:53;;;;;;;10.97;9.40;;;29.40;85.70;;;;;;6149368;28;20035;-82
2021/07/18 07:28:54;;;;;;;12.43;10.00;;;29.40;85.20;;;;;;6150063;28;20026;-81
2021/07/18 07:31:54;;;;;;;11.77;10.67;;;29.50;84.30;;;;;;6165154;28;20459;-82
2021/07/18 07:34:55;;;;;;;11.53;10.40;;;29.50;85.70;;;;;;6165578;28;20627;-82
2021/07/18 07:37:55;;;;;;;12.43;11.00;;;29.50;85.20;;;;;;6146832;28;20038;-82
2021/07/18 07:40:56;;;;;;;12.20;11.00;;;29.50;85.40;;;;;;6149156;28;20384;-82
2021/07/18 07:43:57;;;;;;;13.87;10.00;;;29.50;84.80;;;;;;6132968;28;20031;-82
2021/07/18 07:46:58;;;;;;;13.50;10.67;;;29.70;84.40;;;;;;6167400;28;20034;-83
2021/07/18 07:49:59;;;;;;;12.80;8.80;;;29.90;84.00;;;;;;6165892;28;20611;-82
2021/07/18 07:52:59;;;;;;;11.57;10.17;;;29.80;88.80;;;;;;6148718;28;20047;-84
2021/07/18 07:56:00;;;;;;;12.53;9.70;;;30.00;83.80;;;;;;6132732;28;20593;-82
2021/07/18 07:59:00;;;;;;;10.00;9.03;;;30.70;83.20;;;;;;6164010;28;20121;-82
2021/07/18 08:02:01;;;;;;;10.23;9.30;;;29.90;84.40;;;;;;6163865;28;20030;-81
2021/07/18 08:05:02;;;;;;;13.70;9.83;;;30.00;82.50;;;;;;6132155;28;20079;-81
2021/07/18 08:08:03;;;;;;;10.85;9.65;;;30.00;82.30;;;;;;6147184;28;20049;-81
2021/07/18 08:11:04;;;;;;;10.82;9.07;;;30.00;81.50;;;;;;6164682;28;20035;-81
2021/07/18 08:14:04;;;;;;;12.30;9.67;;;29.90;83.60;;;;;;6164355;28;20023;-81
2021/07/18 08:17:05;;;;;;;12.37;9.20;;;30.00;82.70;;;;;;6148338;28;20035;-83
2021/07/18 08:20:07;;;;;;;10.03;9.03;;;30.00;81.90;;;;;;6165121;28;20101;-81
2021/07/18 08:23:08;;;;;;;11.45;9.18;;;29.90;82.30;;;;;;6165585;28;20023;-81
2021/07/18 08:26:08;;;;;;;9.70;8.80;;;30.20;81.80;;;;;;6149844;28;20042;-81
2021/07/18 08:29:09;;;;;;;12.10;8.83;;;30.40;80.90;;;;;;6149447;28;20109;-81
2021/07/18 08:32:10;;;;;;;9.93;8.93;;;30.50;80.20;;;;;;6165376;28;20030;-84
2021/07/18 08:35:11;;;;;;;10.73;7.83;;;30.50;80.00;;;;;;6165348;28;20379;-81
2021/07/18 08:38:11;;;;;;;8.30;7.47;;;30.40;77.90;;;;;;6152917;28;20039;-81
2021/07/18 08:41:12;;;;;;;10.23;7.03;;;30.50;78.60;;;;;;6153325;28;20270;-81
2021/07/18 08:44:13;;;;;;;9.83;7.20;;;30.80;78.00;;;;;;6153103;28;20024;-82
2021/07/18 08:47:16;;;;;;;7.30;6.43;;;30.70;77.20;;;;;;6137614;28;20038;-81
2021/07/18 08:50:17;;;;;;;10.32;6.88;;;30.60;75.80;;;;;;6153261;28;20142;-81
2021/07/18 08:53:17;;;;;;;8.50;6.57;;;30.50;76.80;;;;;;6152808;28;20042;-82
2021/07/18 08:56:18;;;;;;;10.30;6.53;;;30.70;75.90;;;;;;6153221;28;20089;-81
2021/07/18 08:59:18;;;;;;;8.77;6.97;;;30.70;76.80;;;;;;6136918;28;20156;-81
2021/07/18 09:02:20;;;;;;;7.33;6.30;;;31.00;77.00;;;;;;6168902;28;20035;-81
2021/07/18 09:05:20;;;;;;;7.55;6.72;;;30.90;76.10;;;;;;6168717;28;20035;-81
2021/07/18 09:08:23;;;;;;;7.03;6.33;;;30.90;74.80;;;;;;6152985;28;20030;-81
2021/07/18 09:11:24;;;;;;;10.23;6.47;;;30.90;76.60;;;;;;6152654;28;20461;-83
2021/07/18 09:14:32;;;;;;;6.45;5.88;;;30.60;76.00;;;;;;6137070;28;20130;-82
2021/07/18 09:17:48;;;;;;;6.82;6.13;;;30.70;76.90;;;;;;6152366;28;20029;-82
2021/07/18 09:20:49;;;;;;;8.77;6.82;;;31.50;78.70;;;;;;6148189;28;20049;-82
2021/07/18 09:23:50;;;;;;;11.55;7.13;;;31.00;77.90;;;;;;6152303;28;20031;-83
2021/07/18 09:27:14;;;;;;;8.23;6.70;;;31.10;74.80;;;;;;6147974;28;20464;-81
2021/07/18 09:30:17;;;;;;;8.40;6.53;;;31.00;75.90;;;;;;6135933;28;20125;-82
2021/07/18 09:33:28;;;;;;;8.05;6.13;;;31.20;76.30;;;;;;6168322;28;20445;-82
2021/07/18 09:36:28;;;;;;;6.85;5.63;;;31.30;77.10;;;;;;6151616;28;20030;-82
2021/07/18 09:39:29;;;;;;;11.13;5.87;;;31.70;75.60;;;;;;6152225;28;20066;-82
2021/07/18 09:42:34;;;;;;;9.13;5.30;;;31.80;73.90;;;;;;6152426;28;20026;-82
2021/07/18 09:45:37;;;;;;;7.63;5.95;;;32.10;71.20;;;;;;6167969;28;20034;-81
2021/07/18 09:48:40;;;;;;;6.85;5.85;;;32.40;72.70;;;;;;6152066;28;20160;-82
2021/07/18 09:51:40;;;;;;;7.57;5.93;;;32.40;75.00;;;;;;6150689;28;20129;-82
2021/07/18 09:54:41;;;;;;;7.60;5.67;;;32.80;73.90;;;;;;6166568;28;20104;-82
2021/07/18 09:57:42;;;;;;;7.05;5.93;;;32.90;71.30;;;;;;6151251;28;20034;-82
2021/07/18 10:00:42;;;;;;;8.25;5.45;;;33.00;69.00;;;;;;6167528;28;20035;-82
2021/07/18 10:03:50;;;;;;;6.20;5.60;;;33.20;69.30;;;;;;6119634;28;20029;-82
2021/07/18 10:07:05;;;;;;;8.15;5.78;;;33.10;71.60;;;;;;6151618;28;20063;-82
2021/07/18 10:10:06;;;;;;;7.63;5.68;;;33.30;69.40;;;;;;6167499;28;20057;-82
2021/07/18 10:13:07;;;;;;;8.50;5.88;;;33.40;70.30;;;;;;6167975;28;20164;-82
2021/07/18 10:16:08;;;;;;;8.40;5.45;;;33.60;70.30;;;;;;6151378;28;20085;-83
2021/07/18 10:19:09;;;;;;;9.45;5.80;;;33.40;70.70;;;;;;6135554;28;20039;-82
2021/07/18 10:22:10;;;;;;;6.22;5.00;;;32.60;70.30;;;;;;6151386;28;20027;-81
2021/07/18 10:25:14;;;;;;;8.00;5.40;;;31.70;70.00;;;;;;6151462;28;20089;-82
2021/07/18 10:28:17;;;;;;;6.78;5.00;;;30.70;72.00;;;;;;6135692;28;20031;-82
2021/07/18 10:31:44;;;;;;;9.55;4.88;;;30.20;75.00;;;;;;6151294;28;20167;-82
2021/07/18 10:34:44;;;;;;;6.05;5.38;;;29.80;76.00;;;;;;6168682;28;20039;-82
2021/07/18 10:37:45;;;;;;;6.83;4.73;;;29.70;83.50;;;;;;6167228;28;20085;-82
2021/07/18 10:40:53;;;;;;;6.88;4.53;;;29.70;76.90;;;;;;6167087;28;20031;-82
2021/07/18 10:43:54;;;;;;;8.90;5.40;;;30.20;76.40;;;;;;6167140;28;20739;-82
2021/07/18 10:46:55;;;;;;;5.57;4.57;;;30.60;77.10;;;;;;6151511;28;20035;-82
2021/07/18 10:49:57;;;;;;;5.38;4.65;;;31.00;77.00;;;;;;6150871;28;20117;-82
2021/07/18 10:53:17;;;;;;;8.20;5.03;;;30.50;74.90;;;;;;6150747;28;20366;-83
2021/07/18 10:56:19;;;;;;;7.10;4.90;;;30.20;76.30;;;;;;6134888;28;20034;-82
2021/07/18 10:59:34;;;;;;;11.98;5.30;;;30.10;77.40;;;;;;6166043;28;20349;-82
2021/07/18 11:02:34;;;;;;;8.75;6.10;;;29.90;83.10;;;;;;6166410;28;20031;-82
2021/07/18 11:05:51;;;;;;;9.80;5.77;;;29.70;80.00;;;;;;6150990;28;20360;-83
2021/07/18 11:09:22;;;;;;;9.95;4.93;;;29.90;78.80;;;;;;6166881;28;20087;-82
2021/07/18 11:12:34;;;;;;;9.48;5.65;;;30.50;79.40;;;;;;6166546;28;20076;-82
2021/07/18 11:15:36;;;;;;;8.38;5.10;;;30.40;76.90;;;;;;6166425;28;20039;-82
2021/07/18 11:18:37;;;;;;;8.27;5.60;;;30.80;78.20;;;;;;6150565;28;20578;-82
2021/07/18 11:21:38;;;;;;;7.40;4.55;;;31.40;78.20;;;;;;6150557;28;20030;-81
2021/07/18 11:24:57;;;;;;;9.27;4.27;;;31.50;75.70;;;;;;6133946;28;20104;-82
2021/07/18 11:27:57;;;;;;;6.47;4.72;;;31.50;75.30;;;;;;6150201;28;20051;-82
2021/07/18 11:31:10;;;;;;;7.23;4.50;;;31.40;75.00;;;;;;6165925;28;20681;-82
2021/07/18 11:34:12;;;;;;;8.07;4.35;;;31.40;73.90;;;;;;6167034;28;20038;-82
2021/07/18 11:37:14;;;;;;;14.98;7.43;;;31.20;76.70;;;;;;6149960;28;20135;-82
2021/07/18 11:40:15;;;;;;;10.30;4.80;;;31.20;76.90;;;;;;6150048;28;20014;-82
2021/07/18 11:43:15;;;;;;;6.65;4.57;;;31.40;76.60;;;;;;6134249;28;20030;-82
2021/07/18 11:46:16;;;;;;;6.30;3.80;;;31.60;77.20;;;;;;6165797;28;20034;-82
2021/07/18 11:49:17;;;;;;;9.90;3.95;;;31.50;75.40;;;;;;6149825;28;20027;-82
2021/07/18 11:52:19;;;;;;;5.73;3.90;;;31.20;76.30;;;;;;6165849;28;20042;-82
2021/07/18 11:55:20;;;;;;;5.70;4.03;;;30.90;76.30;;;;;;6165688;28;20341;-82
2021/07/18 11:58:28;;;;;;;4.00;3.50;;;30.50;77.20;;;;;;6149489;28;20027;-82
2021/07/18 12:01:31;;;;;;;5.97;3.80;;;30.30;77.20;;;;;;6167130;28;20072;-82
2021/07/18 12:04:31;;;;;;;6.85;4.25;;;30.20;80.50;;;;;;6149530;28;20031;-82
2021/07/18 12:07:32;;;;;;;4.60;3.60;;;30.20;80.20;;;;;;6149420;28;20027;-82
2021/07/18 12:10:32;;;;;;;5.73;3.63;;;30.20;79.00;;;;;;6151102;28;20494;-82
2021/07/18 12:13:37;;;;;;;8.27;4.33;;;30.30;81.30;;;;;;6168373;28;20411;-82
2021/07/18 12:16:38;;;;;;;6.80;4.25;;;30.30;80.00;;;;;;6153790;28;20023;-81
2021/07/18 12:19:39;;;;;;;6.72;4.30;;;30.20;80.90;;;;;;6168959;28;20120;-81
2021/07/18 12:22:40;;;;;;;7.03;4.00;;;30.10;81.60;;;;;;6137721;28;20036;-81
2021/07/18 12:25:40;;;;;;;3.90;3.47;;;30.10;80.50;;;;;;6169326;28;20027;-81
2021/07/18 12:28:41;;;;;;;5.23;3.87;;;29.90;81.60;;;;;;6167956;28;20039;-81
2021/07/18 12:31:43;;;;;;;5.27;3.90;;;29.60;80.40;;;;;;6153133;28;20030;-82
2021/07/18 12:34:52;;;;;;;5.15;3.53;;;29.50;82.60;;;;;;6152900;28;20488;-82
2021/07/18 12:37:52;;;;;;;8.65;4.30;;;29.40;80.60;;;;;;6169083;28;20138;-82
2021/07/18 12:41:02;;;;;;;6.13;3.87;;;29.20;84.00;;;;;;6152894;28;20035;-82
2021/07/18 12:44:02;;;;;;;5.72;3.60;;;29.10;84.90;;;;;;6137413;28;20031;-82
2021/07/18 12:47:19;;;;;;;4.40;3.70;;;29.20;84.00;;;;;;6137200;28;20038;-83
2021/07/18 12:50:32;;;;;;;4.63;3.58;;;29.40;84.40;;;;;;6153134;28;20122;-81
2021/07/18 12:53:33;;;;;;;6.18;3.65;;;29.60;83.20;;;;;;6169023;28;20055;-81
2021/07/18 12:56:34;;;;;;;5.40;3.53;;;29.50;83.40;;;;;;6152083;28;20045;-82
2021/07/18 12:59:34;;;;;;;6.30;3.33;;;29.50;83.90;;;;;;6152275;28;20372;-81
2021/07/18 13:02:35;;;;;;;4.07;3.50;;;29.50;84.00;;;;;;6168642;28;20046;-81
2021/07/18 13:05:36;;;;;;;8.00;4.00;;;29.50;84.70;;;;;;6170076;28;20112;-81
2021/07/18 13:08:44;;;;;;;5.60;3.50;;;29.40;83.90;;;;;;6169185;28;20918;-81
2021/07/18 13:11:49;;;;;;;5.50;4.00;;;29.20;84.70;;;;;;6137000;28;20042;-82
2021/07/18 13:14:50;;;;;;;6.00;3.67;;;29.10;83.80;;;;;;6168559;28;20117;-82
2021/07/18 13:17:50;;;;;;;5.60;3.90;;;28.80;85.40;;;;;;6151756;28;20045;-82
2021/07/18 13:20:51;;;;;;;7.67;4.10;;;28.80;86.70;;;;;;6168750;28;20073;-81
2021/07/18 13:23:51;;;;;;;10.10;3.70;;;29.10;86.00;;;;;;6167930;28;20080;-81
2021/07/18 13:26:52;;;;;;;5.73;3.80;;;29.00;83.70;;;;;;6167303;28;20329;-81
2021/07/18 13:29:54;;;;;;;5.57;3.93;;;28.90;86.50;;;;;;6168593;28;20480;-81
2021/07/18 13:32:55;;;;;;;7.47;3.50;;;29.00;86.90;;;;;;6168422;28;20027;-81
2021/07/18 13:35:58;;;;;;;5.00;3.63;;;28.80;84.40;;;;;;6169340;28;20046;-82
2021/07/18 13:39:15;;;;;;;5.25;3.75;;;28.40;84.40;;;;;;6167651;28;20043;-81
2021/07/18 13:42:16;;;;;;;5.97;3.75;;;28.10;86.00;;;;;;6167938;28;20658;-86
2021/07/18 13:45:16;;;;;;;5.10;4.00;;;28.10;86.70;;;;;;6136608;28;20034;-84
2021/07/18 13:48:20;;;;;;;8.87;4.40;;;27.80;85.70;;;;;;6136204;28;20031;-85
2021/07/18 13:51:27;;;;;;;7.28;3.63;;;27.80;87.80;;;;;;6136534;28;20062;-85
2021/07/18 13:54:28;;;;;;;5.90;4.03;;;27.80;87.90;;;;;;6151922;28;20058;-85
2021/07/18 13:57:29;;;;;;;5.70;4.10;;;27.60;86.00;;;;;;6135469;28;20649;-86
2021/07/18 14:00:29;;;;;;;4.80;3.67;;;27.60;87.80;;;;;;6150853;28;20038;-88
2021/07/18 14:03:30;;;;;;;4.25;3.42;;;27.80;87.50;;;;;;6134438;28;20425;-86
2021/07/18 14:06:31;;;;;;;8.77;4.17;;;28.10;88.40;;;;;;6135784;28;20368;-86
2021/07/18 14:09:31;;;;;;;5.00;4.03;;;28.00;86.90;;;;;;6134993;28;20088;-83
2021/07/18 14:12:32;;;;;;;5.20;3.70;;;27.60;85.50;;;;;;6135041;28;20038;-84
2021/07/18 14:15:32;;;;;;;5.33;3.90;;;27.60;86.90;;;;;;6151073;28;20039;-87
2021/07/18 14:18:33;;;;;;;6.17;3.83;;;27.90;87.90;;;;;;6150809;28;20026;-84
2021/07/18 14:21:33;;;;;;;7.03;3.63;;;28.20;86.80;;;;;;6166792;28;20057;-85
2021/07/18 14:24:36;;;;;;;4.50;3.67;;;28.00;86.80;;;;;;6133839;28;20051;-85
2021/07/18 14:27:38;;;;;;;7.03;4.10;;;27.90;86.50;;;;;;6134309;28;20106;-86
2021/07/18 14:30:38;;;;;;;7.63;3.83;;;27.50;86.70;;;;;;6140197;28;20027;-84
2021/07/18 14:33:39;;;;;;;5.50;3.63;;;27.30;88.70;;;;;;6149134;28;20050;-82
2021/07/18 14:36:39;;;;;;;8.13;4.33;;;27.50;89.90;;;;;;6166944;28;20373;-84
2021/07/18 14:39:40;;;;;;;5.43;3.60;;;27.70;89.30;;;;;;6134648;28;20476;-85
2021/07/18 14:42:41;;;;;;;6.73;4.10;;;27.70;88.30;;;;;;6151219;28;20039;-85
2021/07/18 14:45:42;;;;;;;4.78;3.72;;;27.80;88.90;;;;;;6151216;28;20053;-86
2021/07/18 14:48:42;;;;;;;6.57;4.27;;;27.50;88.40;;;;;;6135130;28;20371;-83
2021/07/18 14:51:43;;;;;;;6.63;3.97;;;27.30;88.50;;;;;;6134742;28;20105;-84
2021/07/18 14:54:44;;;;;;;8.60;4.17;;;27.10;89.90;;;;;;6150516;28;20054;-88
2021/07/18 14:57:44;;;;;;;5.97;3.97;;;27.20;89.50;;;;;;6150607;28;20042;-82
2021/07/18 15:00:45;;;;;;;10.83;4.43;;;27.30;89.90;;;;;;6134668;28;20031;-81
2021/07/18 15:03:45;;;;;;;9.10;3.90;;;27.30;90.40;;;;;;6165385;28;20034;-84
2021/07/18 15:06:46;;;;;;;6.80;4.53;;;27.30;90.10;;;;;;6151250;28;20622;-82
2021/07/18 15:09:46;;;;;;;8.93;4.73;;;27.10;88.80;;;;;;6150401;28;20023;-80
2021/07/18 15:12:47;;;;;;;5.67;3.90;;;27.10;90.00;;;;;;6166771;28;20061;-77
2021/07/18 15:15:48;;;;;;;7.67;4.20;;;27.20;90.30;;;;;;6167654;28;20072;-78
2021/07/18 15:18:48;;;;;;;7.20;3.90;;;27.30;90.50;;;;;;6166912;28;20035;-83
2021/07/18 15:21:49;;;;;;;6.87;4.33;;;27.50;90.00;;;;;;6165319;28;20335;-82
2021/07/18 15:24:50;;;;;;;7.03;4.27;;;27.60;90.00;;;;;;6149604;28;20027;-81
2021/07/18 15:27:51;;;;;;;6.53;3.90;;;27.70;90.00;;;;;;6164480;28;20026;-87
2021/07/18 15:30:51;;;;;;;10.07;4.03;;;27.60;90.20;;;;;;6133404;28;20614;-89
2021/07/18 15:33:52;;;;;;;5.40;3.57;;;27.70;90.20;;;;;;6133597;28;20047;-84
2021/07/18 15:36:55;;;;;;;12.33;5.83;;;27.80;90.00;;;;;;6132307;28;20547;-88
2021/07/18 15:39:56;;;;;;;6.57;4.78;;;27.70;90.50;;;;;;6148663;28;20103;-88